createdAt,value
2019-06-08T00:01:18.408Z,99828.64
2019-06-08T00:06:23.005Z,99808.03
2019-06-08T00:11:26.510Z,99845.12
2019-06-08T00:16:29.723Z,99828.93
2019-06-08T00:21:32.981Z,99841.84
2019-06-08T00:26:36.215Z,99866.86
2019-06-08T00:31:39.450Z,99898.76
2019-06-08T00:36:42.694Z,99927.03
2019-06-08T00:41:45.895Z,99965.80
2019-06-08T00:46:49.116Z,100000.41
2019-06-08T00:51:52.332Z,100024.90
2019-06-08T00:56:55.582Z,100044.66
2019-06-08T01:01:58.832Z,100060.06
2019-06-08T01:07:02.052Z,100060.29
2019-06-08T01:12:05.358Z,100056.47
2019-06-08T01:17:08.588Z,100049.02
2019-06-08T01:22:11.808Z,100055.88
2019-06-08T01:27:15.034Z,100069.91
2019-06-08T01:32:18.282Z,100070.42
2019-06-08T01:37:22.869Z,100097.63
2019-06-08T01:42:27.644Z,100114.92
2019-06-08T01:47:32.315Z,100120.42
2019-06-08T01:52:36.204Z,100142.95
2019-06-08T01:57:39.427Z,100161.63
2019-06-08T02:02:42.687Z,100171.23
2019-06-08T02:07:45.929Z,100179.50
2019-06-08T02:12:49.151Z,100172.86
2019-06-08T02:17:52.384Z,100166.01
2019-06-08T02:22:55.609Z,100163.55
2019-06-08T02:27:58.830Z,100156.91
2019-06-08T02:33:02.127Z,100167.64
2019-06-08T02:38:05.316Z,100168.73
2019-06-08T02:43:08.558Z,100188.52
2019-06-08T02:48:11.810Z,100201.13
2019-06-08T02:53:15.127Z,100200.61
2019-06-08T02:58:18.423Z,100181.38
2019-06-08T03:03:21.659Z,100177.30
2019-06-08T03:08:24.874Z,100175.05
2019-06-08T03:13:28.082Z,100173.97
2019-06-08T03:18:33.606Z,100178.61
2019-06-08T03:23:38.773Z,100183.61
2019-06-08T03:28:44.046Z,100199.76
2019-06-08T03:33:54.270Z,100203.08
2019-06-08T03:38:51.866Z,100218.72
2019-06-08T03:43:55.097Z,100218.72
2019-06-08T03:48:58.343Z,100213.83
2019-06-08T03:54:01.746Z,100209.71
2019-06-08T03:59:05.541Z,100208.04
2019-06-08T04:04:08.814Z,100225.36
2019-06-08T04:09:12.031Z,100219.83
2019-06-08T04:14:15.325Z,100208.02
2019-06-08T04:19:18.579Z,100221.01
2019-06-08T04:24:21.858Z,100240.48
2019-06-08T04:29:25.101Z,100256.12
2019-06-08T04:34:28.356Z,100277.34
2019-06-08T04:39:31.625Z,100285.83
2019-06-08T04:44:34.858Z,100290.80
2019-06-08T04:49:38.490Z,100293.88
2019-06-08T04:54:42.536Z,100293.49
2019-06-08T04:59:47.987Z,100310.76
2019-06-08T05:04:50.991Z,100329.55
2019-06-08T05:09:54.237Z,100323.48
2019-06-08T05:14:57.442Z,100325.11
2019-06-08T05:20:00.695Z,100337.25
2019-06-08T05:25:05.045Z,100341.06
2019-06-08T05:30:09.025Z,100363.58
2019-06-08T05:35:12.530Z,100375.11
2019-06-08T05:40:15.693Z,100388.04
2019-06-08T05:45:19.093Z,100393.00
2019-06-08T05:50:22.333Z,100396.87
2019-06-08T05:55:25.576Z,100411.38
2019-06-08T06:00:28.795Z,100426.13
2019-06-08T06:05:32.035Z,100453.28
2019-06-08T06:10:35.258Z,100439.12
2019-06-08T06:15:38.474Z,100433.30
2019-06-08T06:20:43.255Z,100436.09
2019-06-08T06:25:47.533Z,100432.38
2019-06-08T06:30:52.248Z,100432.38
2019-06-08T06:35:55.714Z,100454.98
2019-06-08T06:40:58.935Z,100447.25
2019-06-08T06:46:02.143Z,100440.64
2019-06-08T06:51:05.413Z,100453.04
2019-06-08T06:56:08.699Z,100461.31
2019-06-08T07:01:11.906Z,100468.36
2019-06-08T07:06:15.229Z,100482.75
2019-06-08T07:11:18.440Z,100495.95
2019-06-08T07:16:21.714Z,100515.42
2019-06-08T07:21:24.961Z,100517.78
2019-06-08T07:26:28.192Z,100527.46
2019-06-08T07:31:31.446Z,100539.80
2019-06-08T07:36:34.722Z,100553.33
2019-06-08T07:41:37.915Z,100546.45
2019-06-08T07:46:41.144Z,100548.13
2019-06-08T07:51:57.804Z,100535.16
2019-06-08T07:56:50.082Z,100540.48
2019-06-08T08:01:54.362Z,100530.78
2019-06-08T08:06:58.876Z,100523.34
2019-06-08T08:12:02.279Z,100551.17
2019-06-08T08:17:05.504Z,100554.73
2019-06-08T08:22:22.356Z,100564.31
2019-06-08T08:27:13.732Z,100577.25
2019-06-08T08:32:18.807Z,100573.16
2019-06-08T08:37:21.935Z,100568.77
2019-06-08T08:42:27.080Z,100568.14
2019-06-08T08:47:30.821Z,100581.10
2019-06-08T08:52:37.460Z,100596.15
2019-06-08T08:57:41.587Z,100605.83
2019-06-08T09:02:44.116Z,100603.78
2019-06-08T09:07:48.232Z,100615.58
2019-06-08T09:12:52.596Z,100628.47
2019-06-08T09:17:59.809Z,100622.85
2019-06-08T09:23:08.661Z,100630.19
2019-06-08T09:28:08.435Z,100623.85
2019-06-08T09:33:11.806Z,100625.88
2019-06-08T09:38:15.039Z,100635.41
2019-06-08T09:43:18.938Z,100635.18
2019-06-08T09:48:22.573Z,100630.99
2019-06-08T09:53:36.427Z,100634.95
2019-06-08T09:58:30.758Z,100638.50
2019-06-08T10:03:33.967Z,100643.66
2019-06-08T10:08:38.781Z,100637.59
2019-06-08T10:13:43.450Z,100634.98
2019-06-08T10:18:51.136Z,100640.71
2019-06-08T10:23:51.915Z,100645.06
2019-06-08T10:28:55.353Z,100640.17
2019-06-08T10:34:01.801Z,100640.21
2019-06-08T10:39:07.257Z,100646.02
2019-06-08T10:44:13.932Z,100645.67
2019-06-08T10:49:15.095Z,100645.41
2019-06-08T10:54:18.429Z,100636.45
2019-06-08T10:59:21.652Z,100633.78
2019-06-08T11:04:25.082Z,100619.84
2019-06-08T11:09:28.649Z,100620.78
2019-06-08T11:14:32.117Z,100619.70
2019-06-08T11:19:37.664Z,100622.16
2019-06-08T11:24:41.024Z,100630.97
2019-06-08T11:29:44.260Z,100629.83
2019-06-08T11:34:48.789Z,100617.42
2019-06-08T11:39:52.121Z,100617.39
2019-06-08T11:44:55.401Z,100616.05
2019-06-08T11:49:58.621Z,100612.77
2019-06-08T11:55:03.756Z,100627.01
2019-06-08T12:00:16.715Z,100620.64
2019-06-08T12:05:14.180Z,100619.03
2019-06-08T12:10:17.906Z,100632.50
2019-06-08T12:15:21.340Z,100636.70
2019-06-08T12:20:24.571Z,100632.77
2019-06-08T12:25:27.785Z,100631.67
2019-06-08T12:30:31.035Z,100622.35
2019-06-08T12:35:34.259Z,100620.71
2019-06-08T12:40:37.883Z,100627.58
2019-06-08T12:45:42.450Z,100640.75
2019-06-08T12:50:47.875Z,100638.20
2019-06-08T12:55:50.642Z,100643.20
2019-06-08T13:00:53.879Z,100643.50
2019-06-08T13:05:57.567Z,100635.98
2019-06-08T13:11:00.937Z,100632.20
2019-06-08T13:16:04.145Z,100625.84
2019-06-08T13:21:16.668Z,100623.41
2019-06-08T13:26:15.162Z,100618.02
2019-06-08T13:31:21.563Z,100624.92
2019-06-08T13:36:26.307Z,100625.31
2019-06-08T13:41:29.970Z,100631.88
2019-06-08T13:46:32.208Z,100629.58
2019-06-08T13:51:35.424Z,100631.59
2019-06-08T13:56:38.764Z,100649.49
2019-06-08T14:01:41.987Z,100636.79
2019-06-08T14:06:45.220Z,100649.03
2019-06-08T14:11:48.473Z,100641.78
2019-06-08T14:16:51.694Z,100657.23
2019-06-08T14:21:54.945Z,100662.59
2019-06-08T14:26:58.603Z,100654.45
2019-06-08T14:32:01.937Z,100652.73
2019-06-08T14:37:05.154Z,100651.47
2019-06-08T14:42:08.476Z,100651.44
2019-06-08T14:47:14.362Z,100664.03
2019-06-08T14:52:19.339Z,100657.97
2019-06-08T14:57:23.377Z,100658.95
2019-06-08T15:02:28.597Z,100661.59
2019-06-08T15:07:32.841Z,100664.03
2019-06-08T15:12:38.399Z,100666.78
2019-06-08T15:17:41.371Z,100657.77
2019-06-08T15:22:44.622Z,100659.49
2019-06-08T15:27:47.862Z,100643.69
2019-06-08T15:32:51.017Z,100653.61
2019-06-08T15:37:54.260Z,100649.49
2019-06-08T15:42:58.543Z,100648.28
2019-06-08T15:48:01.988Z,100654.27
2019-06-08T15:53:05.198Z,100652.54
2019-06-08T15:58:09.105Z,100646.06
2019-06-08T16:03:12.572Z,100642.45
2019-06-08T16:08:15.798Z,100651.70
2019-06-08T16:13:19.015Z,100651.73
2019-06-08T16:18:22.244Z,100647.39
2019-06-08T16:23:25.466Z,100641.86
2019-06-08T16:28:29.877Z,100651.73
2019-06-08T16:33:33.647Z,100642.66
2019-06-08T16:38:38.274Z,100651.61
2019-06-08T16:43:41.673Z,100652.08
2019-06-08T16:48:44.883Z,100658.68
2019-06-08T16:53:48.113Z,100652.31
2019-06-08T16:58:51.573Z,100656.44
2019-06-08T17:03:54.775Z,100657.77
2019-06-08T17:08:57.997Z,100649.69
2019-06-08T17:14:01.244Z,100655.02
2019-06-08T17:19:04.582Z,100650.06
2019-06-08T17:24:07.831Z,100659.25
2019-06-08T17:29:11.154Z,100658.38
2019-06-08T17:34:14.422Z,100658.84
2019-06-08T17:39:17.669Z,100653.98
2019-06-08T17:44:20.890Z,100657.20
2019-06-08T17:49:24.181Z,100660.25
2019-06-08T17:54:27.406Z,100662.66
2019-06-08T17:59:30.832Z,100670.09
2019-06-08T18:04:34.001Z,100673.69
2019-06-08T18:09:39.214Z,100675.29
2019-06-08T18:14:43.575Z,100687.38
2019-06-08T18:19:49.591Z,100681.13
2019-06-08T18:24:52.098Z,100682.96
2019-06-08T18:29:55.324Z,100686.51
2019-06-08T18:34:58.575Z,100696.85
2019-06-08T18:40:01.791Z,100700.20
2019-06-08T18:45:07.380Z,100707.34
2019-06-08T18:50:10.682Z,100716.55
2019-06-08T18:55:13.884Z,100711.05
2019-06-08T19:00:17.143Z,100720.12
2019-06-08T19:05:21.206Z,100725.55
2019-06-08T19:10:32.819Z,100733.73
2019-06-08T19:15:41.823Z,100739.23
2019-06-08T19:20:45.639Z,100752.13
2019-06-08T19:25:49.181Z,100762.71
2019-06-08T19:30:52.284Z,100777.39
2019-06-08T19:35:58.188Z,100776.56
2019-06-08T19:41:00.480Z,100785.38
2019-06-08T19:46:03.707Z,100792.59
2019-06-08T19:51:07.654Z,100798.31
2019-06-08T19:56:10.953Z,100805.53
2019-06-08T20:01:14.194Z,100815.59
2019-06-08T20:06:17.609Z,100812.23
2019-06-08T20:11:22.402Z,100820.34
2019-06-08T20:16:27.736Z,100830.36
2019-06-08T20:21:30.615Z,100836.53
2019-06-08T20:26:33.862Z,100842.29
2019-06-08T20:31:38.566Z,100849.59
2019-06-08T20:36:42.494Z,100850.09
2019-06-08T20:41:48.494Z,100851.42
2019-06-08T20:46:52.447Z,100853.70
2019-06-08T20:51:57.050Z,100852.48
2019-06-08T20:57:00.771Z,100860.42
2019-06-08T21:02:04.013Z,100862.98
2019-06-08T21:07:08.136Z,100869.81
2019-06-08T21:12:11.753Z,100875.88
2019-06-08T21:17:14.999Z,100883.28
2019-06-08T21:22:18.387Z,100888.98
2019-06-08T21:27:21.639Z,100886.87
2019-06-08T21:32:24.882Z,100887.03
2019-06-08T21:37:28.234Z,100890.84
2019-06-08T21:42:31.445Z,100887.08
2019-06-08T21:47:34.677Z,100883.45
2019-06-08T21:52:37.894Z,100888.69
2019-06-08T21:57:41.157Z,100893.38
2019-06-08T22:02:44.391Z,100898.61
2019-06-08T22:07:47.604Z,100908.61
2019-06-08T22:12:52.399Z,100920.23
2019-06-08T22:17:59.159Z,100932.23
2019-06-08T22:23:00.994Z,100941.20
2019-06-08T22:28:04.199Z,100937.29
2019-06-08T22:33:07.412Z,100947.70
2019-06-08T22:38:10.661Z,100941.13
2019-06-08T22:43:13.910Z,100946.58
2019-06-08T22:48:18.821Z,100943.42
2019-06-08T22:53:22.148Z,100947.48
2019-06-08T22:58:27.553Z,100956.47
2019-06-08T23:03:30.376Z,100965.62
2019-06-08T23:08:33.692Z,100970.09
2019-06-08T23:13:37.733Z,100973.02
2019-06-08T23:18:41.223Z,100975.13
2019-06-08T23:23:44.441Z,100966.94
2019-06-08T23:28:47.715Z,100971.16
2019-06-08T23:33:50.946Z,100957.86
2019-06-08T23:38:54.201Z,100962.23
2019-06-08T23:43:57.556Z,100962.81
2019-06-08T23:49:02.487Z,100967.09
2019-06-08T23:54:09.851Z,100962.77
2019-06-08T23:59:10.665Z,100969.80
